Time;durP1;ratioP1;P1;durP2;ratioP2;P2;SDS_P1;SDS_P2;PMS_P1;PMS_P2;Temp;Humidity;BMP_temperature;BMP_pressure;BME280_temperature;BME280_humidity;BME280_pressure;Samples;Min_cycle;Max_cycle;Signal;HPM_P1;HPM_P2
2021/01/07 00:00:28;;;;;;;18.43;9.40;;;1.70;99.90;;;-146.47;100.00;66290.13;4902700;29;20264;-77
2021/01/07 00:03:13;;;;;;;15.17;8.67;;;1.70;99.90;;;-146.47;100.00;66290.13;4885792;29;20221;-76
2021/01/07 00:05:59;;;;;;;14.80;8.63;;;1.90;99.90;;;-146.47;100.00;66290.13;4899701;29;20224;-76
2021/01/07 00:08:44;;;;;;;16.30;8.37;;;1.70;99.90;;;-146.47;100.00;66290.13;4895141;29;20307;-77
2021/01/07 00:11:29;;;;;;;17.80;10.33;;;1.60;99.90;;;-146.47;100.00;66290.13;4903774;29;20237;-76
2021/01/07 00:14:14;;;;;;;18.80;10.13;;;1.70;99.90;;;-146.47;100.00;66290.13;4903557;29;20233;-77
2021/01/07 00:16:59;;;;;;;17.30;9.50;;;1.70;99.90;;;-146.47;100.00;66290.13;4902925;29;20492;-77
2021/01/07 00:19:45;;;;;;;17.93;10.33;;;1.60;99.90;;;-146.47;100.00;66290.13;4904627;29;20614;-77
2021/01/07 00:22:31;;;;;;;20.07;8.40;;;1.70;99.90;;;-146.47;100.00;66290.13;4904103;29;20324;-77
2021/01/07 00:25:16;;;;;;;18.43;9.50;;;1.70;99.90;;;-146.47;100.00;66290.13;4903590;29;20236;-77
2021/01/07 00:28:03;;;;;;;15.63;8.67;;;1.70;99.90;;;-146.47;100.00;66290.13;4903922;29;20252;-77
2021/01/07 00:30:48;;;;;;;16.97;9.30;;;1.70;99.90;;;-146.47;100.00;66290.13;4902737;29;20255;-77
2021/01/07 00:33:33;;;;;;;18.47;8.70;;;1.60;99.90;;;-146.47;100.00;66290.13;4901980;29;20208;-76
2021/01/07 00:36:20;;;;;;;13.80;8.03;;;1.70;99.90;;;-146.47;100.00;66290.13;4902890;29;20289;-77
2021/01/07 00:39:05;;;;;;;15.57;8.50;;;1.60;99.90;;;-146.47;100.00;66290.13;4902020;29;20802;-77
2021/01/07 00:41:56;;;;;;;15.63;8.77;;;1.60;99.90;;;-146.47;100.00;66290.13;4900008;29;20686;-77
2021/01/07 00:44:41;;;;;;;16.77;7.70;;;1.60;99.90;;;-146.47;100.00;66290.13;4899410;29;20336;-77
2021/01/07 00:47:26;;;;;;;13.83;8.70;;;1.50;99.90;;;-146.47;100.00;66290.13;4901574;29;20208;-78
2021/01/07 00:50:12;;;;;;;15.97;8.70;;;1.50;99.90;;;-146.47;100.00;66290.13;4901080;29;20356;-77
2021/01/07 00:52:58;;;;;;;15.43;8.17;;;1.50;99.90;;;-146.47;100.00;66290.13;4900354;29;20698;-76
2021/01/07 00:55:43;;;;;;;15.10;8.77;;;1.50;99.90;;;-146.47;100.00;66290.13;4901257;29;20216;-76
2021/01/07 00:58:29;;;;;;;14.87;9.00;;;1.50;99.90;;;-146.47;100.00;66290.13;4901008;29;20228;-76
2021/01/07 01:01:14;;;;;;;14.50;9.13;;;1.70;99.90;;;-146.47;100.00;66290.13;4888557;29;20682;-76
2021/01/07 01:03:59;;;;;;;16.30;8.60;;;1.40;99.90;;;-146.47;100.00;66290.13;4894870;29;20265;-76
2021/01/07 01:06:45;;;;;;;15.93;8.40;;;1.50;99.90;;;-146.47;100.00;66290.13;4899747;29;20220;-78
2021/01/07 01:09:31;;;;;;;19.87;9.20;;;1.40;99.90;;;-146.47;100.00;66290.13;4898849;29;20232;-77
2021/01/07 01:12:17;;;;;;;16.40;9.30;;;1.50;99.90;;;-146.47;100.00;66290.13;4897968;29;20208;-76
2021/01/07 01:15:07;;;;;;;17.10;8.10;;;1.50;99.90;;;-146.47;100.00;66290.13;4901500;29;20229;-77
2021/01/07 01:17:52;;;;;;;16.27;8.57;;;1.70;99.90;;;-146.47;100.00;66290.13;4901931;29;20643;-77
2021/01/07 01:20:37;;;;;;;17.27;8.90;;;1.50;99.90;;;-146.47;100.00;66290.13;4892611;29;20212;-77
2021/01/07 01:23:22;;;;;;;16.87;9.33;;;1.60;99.90;;;-146.47;100.00;66290.13;4898684;29;20212;-76
2021/01/07 01:26:08;;;;;;;15.43;9.17;;;1.60;99.90;;;-146.47;100.00;66290.13;4887510;29;20269;-76
2021/01/07 01:28:54;;;;;;;19.90;8.90;;;1.60;99.90;;;-146.47;100.00;66290.13;4886097;29;20273;-77
2021/01/07 01:31:39;;;;;;;17.17;10.10;;;1.70;99.90;;;-146.47;100.00;66290.13;4899783;29;20220;-76
2021/01/07 01:34:25;;;;;;;16.40;9.77;;;1.70;99.90;;;-146.47;100.00;66290.13;4894841;29;20208;-76
2021/01/07 01:37:10;;;;;;;18.00;9.27;;;1.70;99.90;;;-146.47;100.00;66290.13;4901713;29;20219;-76
2021/01/07 01:39:55;;;;;;;15.63;8.97;;;1.80;99.90;;;-146.47;100.00;66290.13;4894439;29;20262;-78
2021/01/07 01:42:41;;;;;;;13.97;8.87;;;2.30;99.90;;;-146.47;100.00;66290.13;4896365;29;20216;-76
2021/01/07 01:45:26;;;;;;;18.47;9.93;;;1.90;99.90;;;-146.47;100.00;66290.13;4900574;29;20263;-77
2021/01/07 01:48:12;;;;;;;15.00;8.83;;;1.90;99.90;;;-146.47;100.00;66290.13;4886988;29;20260;-77
2021/01/07 01:50:59;;;;;;;16.17;8.97;;;2.10;99.90;;;-146.47;100.00;66290.13;4899722;29;20215;-77
2021/01/07 01:53:46;;;;;;;13.93;8.53;;;2.50;99.90;;;-146.47;100.00;66290.13;4890872;29;20237;-78
2021/01/07 01:56:33;;;;;;;14.67;8.20;;;2.00;99.90;;;-146.47;100.00;66290.13;4900577;29;20265;-77
2021/01/07 01:59:21;;;;;;;15.40;8.20;;;2.30;99.90;;;-146.47;100.00;66290.13;4899214;29;20247;-77
2021/01/07 02:02:08;;;;;;;13.50;7.63;;;2.10;99.90;;;-146.47;100.00;66290.13;4882498;29;20727;-77
2021/01/07 02:04:56;;;;;;;13.30;8.10;;;2.30;99.90;;;-146.47;100.00;66290.13;4897721;29;20211;-77
2021/01/07 02:07:43;;;;;;;13.53;7.73;;;2.90;99.90;;;-146.47;100.00;66290.13;4888673;29;20217;-77
2021/01/07 02:10:28;;;;;;;14.87;8.63;;;2.20;99.90;;;-146.47;100.00;66290.13;4888496;29;20212;-77
2021/01/07 02:13:13;;;;;;;13.83;8.00;;;2.20;99.90;;;-146.47;100.00;66290.13;4899423;29;20224;-76
2021/01/07 02:16:00;;;;;;;14.57;7.87;;;2.20;99.90;;;-146.47;100.00;66290.13;4901357;29;20216;-76
2021/01/07 02:18:45;;;;;;;12.07;7.90;;;2.50;99.90;;;-146.47;100.00;66290.13;4898170;29;20243;-77
2021/01/07 02:21:37;;;;;;;11.90;7.70;;;2.50;99.90;;;-146.47;100.00;66290.13;4900334;29;20216;-77
2021/01/07 02:24:23;;;;;;;18.23;8.63;;;2.30;99.90;;;-146.47;100.00;66290.13;4901323;29;20211;-77
2021/01/07 02:27:10;;;;;;;11.83;7.23;;;2.30;99.90;;;-146.47;100.00;66290.13;4898927;29;20296;-76
2021/01/07 02:29:55;;;;;;;15.23;8.53;;;2.60;99.90;;;-146.47;100.00;66290.13;4890172;29;20340;-79
2021/01/07 02:32:40;;;;;;;13.63;8.40;;;2.30;99.90;;;-146.47;100.00;66290.13;4890401;29;20252;-76
2021/01/07 02:35:26;;;;;;;12.63;8.67;;;2.30;99.90;;;-146.47;100.00;66290.13;4898073;29;20212;-77
2021/01/07 02:38:11;;;;;;;10.93;7.97;;;2.40;99.90;;;-146.47;100.00;66290.13;4900158;29;20260;-77
2021/01/07 02:40:57;;;;;;;12.83;8.70;;;2.60;99.90;;;-146.47;100.00;66290.13;4900462;29;20259;-77
2021/01/07 02:43:42;;;;;;;14.07;9.20;;;2.40;99.90;;;-146.47;100.00;66290.13;4899049;29;20264;-76
2021/01/07 02:46:27;;;;;;;17.03;9.17;;;2.50;99.90;;;-146.47;100.00;66290.13;4888144;29;20219;-77
2021/01/07 02:49:12;;;;;;;17.23;8.33;;;2.40;99.90;;;-146.47;100.00;66290.13;4899998;29;20271;-77
2021/01/07 02:51:57;;;;;;;16.13;8.70;;;2.70;99.90;;;-146.47;100.00;66290.13;4893084;29;20289;-77
2021/01/07 02:54:43;;;;;;;17.23;9.40;;;2.50;99.90;;;-146.47;100.00;66290.13;4898303;29;20207;-76
2021/01/07 02:57:29;;;;;;;14.13;8.33;;;2.50;99.90;;;-146.47;100.00;66290.13;4897958;29;20288;-76
2021/01/07 03:00:15;;;;;;;13.33;8.77;;;2.40;99.90;;;-146.47;100.00;66290.13;4898913;29;20231;-77
2021/01/07 03:03:00;;;;;;;16.90;9.53;;;2.50;99.90;;;-146.47;100.00;66290.13;4899959;29;20260;-78
2021/01/07 03:05:45;;;;;;;15.37;8.37;;;2.50;99.90;;;-146.47;100.00;66290.13;4899746;29;20240;-76
2021/01/07 03:08:31;;;;;;;13.80;8.87;;;2.50;99.90;;;-146.47;100.00;66290.13;4898936;29;20297;-77
2021/01/07 03:11:17;;;;;;;14.87;9.83;;;2.50;99.90;;;-146.47;100.00;66290.13;4900314;29;20288;-77
2021/01/07 03:14:03;;;;;;;12.70;8.80;;;2.70;99.90;;;-146.47;100.00;66290.13;4898863;29;20268;-77
2021/01/07 03:16:48;;;;;;;14.20;10.07;;;2.50;99.90;;;-146.47;100.00;66290.13;4898534;29;20289;-78
2021/01/07 03:19:34;;;;;;;14.60;8.87;;;2.50;99.90;;;-146.47;100.00;66290.13;4899125;29;20251;-77
2021/01/07 03:22:19;;;;;;;15.57;9.50;;;2.60;99.90;;;-146.47;100.00;66290.13;4890830;29;20593;-77
2021/01/07 03:25:06;;;;;;;14.00;9.80;;;2.70;99.90;;;-146.47;100.00;66290.13;4880715;29;20225;-77
2021/01/07 03:27:51;;;;;;;14.00;9.47;;;2.50;99.90;;;-146.47;100.00;66290.13;4891924;29;20236;-77
2021/01/07 03:30:37;;;;;;;14.60;9.77;;;2.70;99.90;;;-146.47;100.00;66290.13;4890416;29;20449;-77
2021/01/07 03:33:22;;;;;;;15.47;10.30;;;2.50;99.90;;;-146.47;100.00;66290.13;4905376;29;20253;-76
2021/01/07 03:36:07;;;;;;;14.70;9.70;;;2.60;99.90;;;-146.47;100.00;66290.13;4912062;29;20205;-77
2021/01/07 03:38:52;;;;;;;16.47;9.40;;;2.50;99.90;;;-146.47;100.00;66290.13;4892220;29;20656;-77
2021/01/07 03:41:38;;;;;;;18.03;9.90;;;2.50;99.90;;;-146.47;100.00;66290.13;4902118;29;20216;-77
2021/01/07 03:44:23;;;;;;;12.03;8.50;;;2.70;99.90;;;-146.47;100.00;66290.13;4901702;29;20714;-77
2021/01/07 03:47:09;;;;;;;14.17;8.50;;;2.50;99.90;;;-146.47;100.00;66290.13;4888502;29;20225;-77
2021/01/07 03:49:54;;;;;;;15.33;9.50;;;2.50;99.90;;;-146.47;100.00;66290.13;4889730;29;20236;-77
2021/01/07 03:52:39;;;;;;;12.43;9.00;;;2.50;99.90;;;-146.47;100.00;66290.13;4900958;29;20216;-77
2021/01/07 03:55:24;;;;;;;20.20;9.87;;;2.50;99.90;;;-146.47;100.00;66290.13;4900563;29;20208;-77
2021/01/07 03:58:09;;;;;;;14.37;9.40;;;2.50;99.90;;;-146.47;100.00;66290.13;4900361;29;20216;-77
2021/01/07 04:00:56;;;;;;;12.27;8.63;;;2.70;99.90;;;-146.47;100.00;66290.13;4900888;29;20269;-77
2021/01/07 04:03:41;;;;;;;14.37;10.23;;;2.50;99.90;;;-146.47;100.00;66290.13;4900995;29;20240;-76
2021/01/07 04:06:26;;;;;;;14.40;8.87;;;2.50;99.90;;;-146.47;100.00;66290.13;4897903;29;20284;-78
2021/01/07 04:09:11;;;;;;;13.40;8.87;;;2.50;99.90;;;-146.47;100.00;66290.13;4900355;29;20288;-77
2021/01/07 04:11:56;;;;;;;16.00;9.43;;;2.50;99.90;;;-146.47;100.00;66290.13;4900984;29;20208;-77
2021/01/07 04:14:41;;;;;;;13.07;9.17;;;2.50;99.90;;;-146.47;100.00;66290.13;4903916;29;20208;-77
2021/01/07 04:17:28;;;;;;;14.80;9.63;;;2.80;99.90;;;-146.47;100.00;66290.13;4903483;29;20723;-77
2021/01/07 04:20:13;;;;;;;14.23;9.17;;;2.50;99.90;;;-146.47;100.00;66290.13;4903364;29;20737;-77
2021/01/07 04:22:58;;;;;;;16.67;10.07;;;2.50;99.90;;;-146.47;100.00;66290.13;4903151;29;20232;-77
2021/01/07 04:25:43;;;;;;;16.37;9.33;;;2.60;99.90;;;-146.47;100.00;66290.13;4898224;29;20216;-78
2021/01/07 04:28:28;;;;;;;14.83;9.13;;;2.50;99.90;;;-146.47;100.00;66290.13;4901502;29;20296;-78
2021/01/07 04:31:14;;;;;;;14.47;9.00;;;2.70;99.90;;;-146.47;100.00;66290.13;4904100;29;20221;-77
2021/01/07 04:34:00;;;;;;;15.50;9.93;;;2.60;99.90;;;-146.47;100.00;66290.13;4904017;29;20618;-77
2021/01/07 04:36:45;;;;;;;15.00;9.57;;;3.00;99.90;;;-146.47;100.00;66290.13;4902899;29;20569;-77
2021/01/07 04:39:30;;;;;;;14.27;9.50;;;2.50;99.90;;;-146.47;100.00;66290.13;4889972;29;20231;-77
2021/01/07 04:42:15;;;;;;;15.17;10.47;;;2.70;99.90;;;-146.47;100.00;66290.13;4901198;29;20215;-77
2021/01/07 04:45:03;;;;;;;15.23;9.27;;;2.60;99.90;;;-146.47;100.00;66290.13;4901881;29;20248;-77
2021/01/07 04:47:53;;;;;;;14.47;9.27;;;2.60;99.90;;;-146.47;100.00;66290.13;4900889;29;20264;-77
2021/01/07 04:50:39;;;;;;;14.23;9.50;;;2.60;99.90;;;-146.47;100.00;66290.13;4888345;29;20273;-77
2021/01/07 04:53:25;;;;;;;14.57;9.50;;;2.60;99.90;;;-146.47;100.00;66290.13;4891670;29;20253;-77
2021/01/07 04:56:10;;;;;;;16.67;10.17;;;2.60;99.90;;;-146.47;100.00;66290.13;4899953;29;20199;-77
2021/01/07 04:58:55;;;;;;;15.53;9.43;;;2.60;99.90;;;-146.47;100.00;66290.13;4890741;29;20236;-78
2021/01/07 05:01:41;;;;;;;16.57;10.00;;;2.50;99.90;;;-146.47;100.00;66290.13;4882146;29;20238;-77
2021/01/07 05:04:26;;;;;;;14.50;9.30;;;2.60;99.90;;;-146.47;100.00;66290.13;4896728;29;20284;-76
2021/01/07 05:07:12;;;;;;;14.10;8.83;;;2.60;99.90;;;-146.47;100.00;66290.13;4890113;29;20236;-77
2021/01/07 05:10:04;;;;;;;16.03;9.47;;;2.60;99.90;;;-146.47;100.00;66290.13;4888239;29;20243;-76
2021/01/07 05:12:49;;;;;;;17.00;10.40;;;2.60;99.90;;;-146.47;100.00;66290.13;4899518;29;20220;-77
2021/01/07 05:15:39;;;;;;;16.90;10.00;;;2.60;99.90;;;-146.47;100.00;66290.13;4891994;29;20264;-77
2021/01/07 05:18:25;;;;;;;17.90;10.80;;;2.70;99.90;;;-146.47;100.00;66290.13;4899945;29;20726;-76
2021/01/07 05:21:11;;;;;;;20.20;11.17;;;2.60;99.90;;;-146.47;100.00;66290.13;4899851;29;20233;-76
2021/01/07 05:23:58;;;;;;;21.80;11.40;;;2.60;99.90;;;-146.47;100.00;66290.13;4898672;29;20289;-76
2021/01/07 05:26:44;;;;;;;22.27;12.20;;;2.60;99.90;;;-146.47;100.00;66290.13;4900863;29;20224;-76
2021/01/07 05:29:30;;;;;;;23.83;12.97;;;2.60;99.90;;;-146.47;100.00;66290.13;4882683;29;20771;-77
2021/01/07 05:32:15;;;;;;;23.33;14.40;;;2.60;99.90;;;-146.47;100.00;66290.13;4899975;29;20200;-77
2021/01/07 05:35:00;;;;;;;23.90;13.93;;;2.60;99.90;;;-146.47;100.00;66290.13;4890579;29;20649;-77
2021/01/07 05:37:45;;;;;;;21.50;13.27;;;3.30;99.90;;;-146.47;100.00;66290.13;4884902;29;20238;-77
2021/01/07 05:40:31;;;;;;;25.07;13.97;;;2.60;99.90;;;-146.47;100.00;66290.13;4900475;29;20229;-76
2021/01/07 05:43:17;;;;;;;23.90;13.73;;;2.60;99.90;;;-146.47;100.00;66290.13;4903913;29;20229;-77
2021/01/07 05:46:02;;;;;;;24.60;12.60;;;2.60;99.90;;;-146.47;100.00;66290.13;4903846;29;20261;-77
2021/01/07 05:48:47;;;;;;;21.87;12.40;;;2.60;99.90;;;-146.47;100.00;66290.13;4904528;29;20275;-77
2021/01/07 05:51:32;;;;;;;22.53;12.80;;;2.60;99.90;;;-146.47;100.00;66290.13;4907593;29;20225;-78
2021/01/07 05:54:18;;;;;;;19.60;11.80;;;2.60;99.90;;;-146.47;100.00;66290.13;4921539;29;20232;-76
2021/01/07 05:57:05;;;;;;;24.27;14.23;;;3.60;99.90;;;-146.47;100.00;66290.13;4921976;29;20216;-77
2021/01/07 05:59:51;;;;;;;22.13;13.70;;;2.70;99.90;;;-146.47;100.00;66290.13;4915285;29;20261;-77
2021/01/07 06:02:39;;;;;;;19.23;11.87;;;2.70;99.90;;;-146.47;100.00;66290.13;4901898;29;20231;-77
2021/01/07 06:05:25;;;;;;;18.63;12.27;;;2.70;99.90;;;-146.47;100.00;66290.13;4899848;29;20223;-78
2021/01/07 06:08:14;;;;;;;20.73;11.70;;;2.90;99.90;;;-146.47;100.00;66290.13;4889889;29;20216;-77
2021/01/07 06:11:00;;;;;;;18.50;11.53;;;2.70;99.90;;;-146.47;100.00;66290.13;4901304;29;20236;-77
2021/01/07 06:13:49;;;;;;;20.20;11.77;;;2.70;99.90;;;-146.47;100.00;66290.13;4894282;29;20268;-76
2021/01/07 06:16:34;;;;;;;24.13;13.27;;;2.70;99.90;;;-146.47;100.00;66290.13;4897738;29;20216;-77
2021/01/07 06:19:32;;;;;;;20.80;12.40;;;2.70;99.90;;;-146.47;100.00;66290.13;4898208;29;20234;-77
2021/01/07 06:22:18;;;;;;;18.93;12.20;;;2.70;99.90;;;-146.47;100.00;66290.13;4889220;29;20215;-77
2021/01/07 06:25:11;;;;;;;22.87;13.67;;;2.90;99.90;;;-146.47;100.00;66290.13;4898956;29;20219;-78
2021/01/07 06:27:56;;;;;;;23.63;13.33;;;2.70;99.90;;;-146.47;100.00;66290.13;4898244;29;20311;-77
2021/01/07 06:30:44;;;;;;;23.47;13.10;;;2.70;99.90;;;-146.47;100.00;66290.13;4888578;29;20615;-76
2021/01/07 06:33:30;;;;;;;21.23;12.13;;;2.70;99.90;;;-146.47;100.00;66290.13;4896675;29;20288;-77
2021/01/07 06:36:15;;;;;;;20.53;12.57;;;2.70;99.90;;;-146.47;100.00;66290.13;4906486;29;20774;-78
2021/01/07 06:39:03;;;;;;;18.77;10.47;;;2.70;99.90;;;-146.47;100.00;66290.13;4903641;29;20248;-76
2021/01/07 06:41:58;;;;;;;22.53;13.03;;;2.70;99.90;;;-146.47;100.00;66290.13;4900473;29;20210;-77
2021/01/07 06:44:45;;;;;;;23.10;14.03;;;2.70;99.90;;;-146.47;100.00;66290.13;4899282;29;20201;-76
2021/01/07 06:47:32;;;;;;;20.70;13.20;;;2.80;99.90;;;-146.47;100.00;66290.13;4899783;29;20223;-77
2021/01/07 06:50:17;;;;;;;21.47;12.80;;;2.80;99.90;;;-146.47;100.00;66290.13;4896225;29;20257;-78
2021/01/07 06:53:06;;;;;;;21.63;12.23;;;2.80;99.90;;;-146.47;100.00;66290.13;4893040;29;20292;-76
2021/01/07 06:56:22;;;;;;;26.67;14.73;;;2.80;99.90;;;-146.47;100.00;66290.13;4882047;29;20346;-77
2021/01/07 06:59:08;;;;;;;23.10;13.60;;;2.80;99.90;;;-146.47;100.00;66290.13;4881802;29;20285;-77
2021/01/07 07:01:58;;;;;;;22.33;12.50;;;3.10;99.90;;;-146.47;100.00;66290.13;4892379;29;20296;-77
2021/01/07 07:04:46;;;;;;;25.70;14.27;;;2.90;99.90;;;-146.47;100.00;66290.13;4886337;29;20297;-77
2021/01/07 07:08:05;;;;;;;23.90;12.93;;;2.80;99.90;;;-146.47;100.00;66290.13;4883628;29;20305;-77
2021/01/07 07:11:07;;;;;;;23.83;13.87;;;2.80;99.90;;;-146.47;100.00;66290.13;4881808;29;20208;-77
2021/01/07 07:13:57;;;;;;;25.57;13.67;;;2.80;99.90;;;-146.47;100.00;66290.13;4883753;29;20237;-77
2021/01/07 07:16:43;;;;;;;21.97;13.23;;;2.80;99.90;;;-146.47;100.00;66290.13;4891076;29;20266;-77
2021/01/07 07:19:28;;;;;;;22.13;12.60;;;2.80;99.90;;;-146.47;100.00;66290.13;4881484;29;20662;-77
2021/01/07 07:22:19;;;;;;;17.33;10.90;;;2.80;99.90;;;-146.47;100.00;66290.13;4893322;29;20270;-76
2021/01/07 07:25:07;;;;;;;23.40;13.13;;;2.80;99.90;;;-146.47;100.00;66290.13;4884291;29;20256;-78
2021/01/07 07:27:54;;;;;;;19.03;10.57;;;2.80;99.90;;;-146.47;100.00;66290.13;4888889;29;20227;-77
2021/01/07 07:30:41;;;;;;;18.07;10.73;;;2.80;99.90;;;-146.47;100.00;66290.13;4890787;29;20273;-78
2021/01/07 07:33:34;;;;;;;16.07;10.10;;;2.80;99.90;;;-146.47;100.00;66290.13;4889192;29;20256;-78
2021/01/07 07:36:30;;;;;;;19.53;9.83;;;2.90;99.90;;;-146.47;100.00;66290.13;4891177;29;20273;-76
2021/01/07 07:39:16;;;;;;;18.53;10.37;;;3.00;99.90;;;-146.47;100.00;66290.13;4895895;29;20701;-76
2021/01/07 07:42:10;;;;;;;17.67;10.37;;;2.80;99.90;;;-146.47;100.00;66290.13;4897900;29;20241;-76
2021/01/07 07:44:55;;;;;;;18.13;9.80;;;2.90;99.90;;;-146.47;100.00;66290.13;4886975;29;20334;-76
2021/01/07 07:47:40;;;;;;;20.13;10.13;;;2.90;99.90;;;-146.47;100.00;66290.13;4895842;29;20268;-77
2021/01/07 07:50:29;;;;;;;19.97;10.63;;;2.90;99.90;;;-146.47;100.00;66290.13;4898192;29;20235;-76
2021/01/07 07:53:15;;;;;;;20.30;10.77;;;2.90;99.90;;;-146.47;100.00;66290.13;4889479;29;20714;-76
2021/01/07 07:56:01;;;;;;;16.83;9.03;;;2.90;99.90;;;-146.47;100.00;66290.13;4895944;29;20220;-76
2021/01/07 07:58:46;;;;;;;23.17;12.13;;;2.90;99.90;;;-146.47;100.00;66290.13;4891285;29;20301;-76
2021/01/07 08:01:44;;;;;;;19.67;10.40;;;3.00;99.90;;;-146.47;100.00;66290.13;4881780;29;20228;-76
2021/01/07 08:04:29;;;;;;;20.00;11.93;;;3.20;99.90;;;-146.47;100.00;66290.13;4892812;29;20304;-77
2021/01/07 08:07:14;;;;;;;20.53;10.67;;;2.90;99.90;;;-146.47;100.00;66290.13;4897020;29;20244;-77
2021/01/07 08:10:06;;;;;;;21.73;10.90;;;3.20;99.90;;;-146.47;100.00;66290.13;4907854;29;20347;-76
2021/01/07 08:12:53;;;;;;;18.77;10.60;;;3.20;99.90;;;-146.47;100.00;66290.13;4902017;29;20268;-77
2021/01/07 08:15:47;;;;;;;21.80;11.83;;;2.90;99.90;;;-146.47;100.00;66290.13;4895283;29;20301;-76
2021/01/07 08:18:32;;;;;;;20.30;10.63;;;3.00;99.90;;;-146.47;100.00;66290.13;4893691;29;20251;-77
2021/01/07 08:21:17;;;;;;;22.87;12.73;;;3.00;99.90;;;-146.47;100.00;66290.13;4892517;29;20300;-76
2021/01/07 08:24:10;;;;;;;18.60;9.47;;;3.00;99.90;;;-146.47;100.00;66290.13;4885380;29;20219;-78
2021/01/07 08:27:07;;;;;;;21.20;12.00;;;3.00;99.90;;;-146.47;100.00;66290.13;4888598;29;20353;-78
2021/01/07 08:30:00;;;;;;;22.10;11.20;;;3.10;99.90;;;-146.47;100.00;66290.13;4890740;29;20236;-78
2021/01/07 08:32:48;;;;;;;23.00;11.40;;;3.10;99.90;;;-146.47;100.00;66290.13;4899058;29;20215;-75
2021/01/07 08:35:36;;;;;;;23.23;11.10;;;3.10;99.90;;;-146.47;100.00;66290.13;4893997;29;20207;-77
2021/01/07 08:38:26;;;;;;;22.40;10.73;;;3.10;99.90;;;-146.47;100.00;66290.13;4898901;29;20243;-76
2021/01/07 08:41:14;;;;;;;19.70;10.47;;;3.40;99.90;;;-146.47;100.00;66290.13;4898770;29;20252;-77
2021/01/07 08:44:03;;;;;;;21.50;11.70;;;3.20;99.90;;;-146.47;100.00;66290.13;4897109;29;20224;-75
2021/01/07 08:46:49;;;;;;;20.90;11.43;;;3.20;99.90;;;-146.47;100.00;66290.13;4898105;29;20224;-76
2021/01/07 08:49:34;;;;;;;21.70;11.90;;;3.30;99.90;;;-146.47;100.00;66290.13;4892546;29;20236;-76
2021/01/07 08:52:19;;;;;;;20.07;11.70;;;3.30;99.90;;;-146.47;100.00;66290.13;4891778;29;20216;-75
2021/01/07 08:55:06;;;;;;;20.40;11.20;;;3.30;99.90;;;-146.47;100.00;66290.13;4887219;29;20708;-76
2021/01/07 08:58:02;;;;;;;19.80;11.03;;;3.30;99.90;;;-146.47;100.00;66290.13;4896725;29;20260;-77
2021/01/07 09:00:49;;;;;;;19.77;10.93;;;3.30;99.90;;;-146.47;100.00;66290.13;4896490;29;20264;-77
2021/01/07 09:03:37;;;;;;;20.43;11.03;;;3.40;99.90;;;-146.47;100.00;66290.13;4889855;29;20228;-77
2021/01/07 09:06:22;;;;;;;17.70;10.07;;;3.40;99.90;;;-146.47;100.00;66290.13;4896332;29;20286;-77
2021/01/07 09:09:12;;;;;;;18.70;11.20;;;3.40;99.90;;;-146.47;100.00;66290.13;4889789;29;20278;-77
2021/01/07 09:12:17;;;;;;;18.83;11.03;;;3.50;99.90;;;-146.47;100.00;66290.13;4888688;29;20205;-77
2021/01/07 09:15:07;;;;;;;18.93;11.47;;;3.50;99.90;;;-146.47;100.00;66290.13;4899069;29;20574;-77
2021/01/07 09:17:55;;;;;;;18.73;10.90;;;3.50;99.90;;;-146.47;100.00;66290.13;4900195;29;20290;-77
2021/01/07 09:20:41;;;;;;;18.37;10.73;;;3.40;99.90;;;-146.47;100.00;66290.13;4890221;29;20299;-77
2021/01/07 09:23:26;;;;;;;18.17;10.80;;;3.50;99.90;;;-146.47;100.00;66290.13;4898904;29;20211;-77
2021/01/07 09:26:26;;;;;;;16.07;9.33;;;3.50;99.90;;;-146.47;100.00;66290.13;4893454;29;20224;-77
2021/01/07 09:29:13;;;;;;;19.83;11.30;;;3.50;99.90;;;-146.47;100.00;66290.13;4900124;29;20267;-77
2021/01/07 09:31:58;;;;;;;16.60;9.67;;;3.60;99.90;;;-146.47;100.00;66290.13;4899571;29;20208;-77
2021/01/07 09:34:45;;;;;;;19.13;11.83;;;3.60;99.90;;;-146.47;100.00;66290.13;4897090;29;20276;-77
2021/01/07 09:37:37;;;;;;;19.87;11.40;;;3.60;99.90;;;-146.47;100.00;66290.13;4897287;29;20212;-77
2021/01/07 09:40:25;;;;;;;17.70;10.03;;;3.60;99.90;;;-146.47;100.00;66290.13;4897168;29;20280;-77
2021/01/07 09:43:10;;;;;;;16.53;10.60;;;3.70;99.90;;;-146.47;100.00;66290.13;4890333;29;20235;-77
2021/01/07 09:45:55;;;;;;;21.53;10.30;;;3.70;99.90;;;-146.47;100.00;66290.13;4894253;29;20327;-77
2021/01/07 09:48:40;;;;;;;16.37;9.23;;;3.90;99.90;;;-146.47;100.00;66290.13;4896077;29;20238;-77
2021/01/07 09:51:25;;;;;;;18.07;10.27;;;3.80;99.90;;;-146.47;100.00;66290.13;4886343;29;20578;-77
2021/01/07 09:54:11;;;;;;;17.23;10.80;;;3.80;99.90;;;-146.47;100.00;66290.13;4893118;29;20232;-77
2021/01/07 09:56:59;;;;;;;16.20;8.97;;;3.80;99.90;;;-146.47;100.00;66290.13;4899134;29;20576;-77
2021/01/07 09:59:44;;;;;;;15.43;8.70;;;3.80;99.90;;;-146.47;100.00;66290.13;4897777;29;20281;-77
2021/01/07 10:02:29;;;;;;;15.43;9.23;;;3.80;99.90;;;-146.47;100.00;66290.13;4897406;29;20747;-77
2021/01/07 10:05:15;;;;;;;13.07;8.23;;;3.90;99.90;;;-146.47;100.00;66290.13;4893856;29;20364;-78
2021/01/07 10:08:01;;;;;;;13.03;8.20;;;3.90;99.90;;;-146.47;100.00;66290.13;4897032;29;20232;-78
2021/01/07 10:10:49;;;;;;;12.93;7.43;;;3.90;99.90;;;-146.47;100.00;66290.13;4897864;29;20237;-78
2021/01/07 10:13:35;;;;;;;11.10;7.00;;;3.90;99.90;;;-146.47;100.00;66290.13;4890187;29;20249;-78
2021/01/07 10:16:20;;;;;;;12.30;7.57;;;4.00;99.90;;;-146.47;100.00;66290.13;4898497;29;20208;-78
2021/01/07 10:19:05;;;;;;;11.10;6.93;;;4.00;99.90;;;-146.47;100.00;66290.13;4899187;29;20260;-76
2021/01/07 10:22:00;;;;;;;12.47;8.27;;;4.00;99.90;;;-146.47;100.00;66290.13;4897135;29;20268;-77
2021/01/07 10:24:47;;;;;;;12.00;7.57;;;4.10;99.90;;;-146.47;100.00;66290.13;4894681;29;20246;-77
2021/01/07 10:27:34;;;;;;;9.43;7.20;;;4.10;99.90;;;-146.47;100.00;66290.13;4898019;29;20960;-76
2021/01/07 10:30:20;;;;;;;10.57;7.00;;;4.10;99.90;;;-146.47;100.00;66290.13;4895741;29;20308;-77
2021/01/07 10:33:05;;;;;;;13.57;7.87;;;4.10;99.90;;;-146.47;100.00;66290.13;4895267;29;20586;-77
2021/01/07 10:35:51;;;;;;;10.90;7.87;;;4.10;99.90;;;-146.47;100.00;66290.13;4895506;29;20706;-77
2021/01/07 10:38:37;;;;;;;11.57;7.43;;;4.20;99.90;;;-146.47;100.00;66290.13;4898526;29;20307;-77
2021/01/07 10:41:28;;;;;;;13.67;8.67;;;4.20;99.90;;;-146.47;100.00;66290.13;4898455;29;20200;-77
2021/01/07 10:44:15;;;;;;;9.70;7.53;;;4.20;99.90;;;-146.47;100.00;66290.13;4897707;29;20288;-77
2021/01/07 10:47:03;;;;;;;13.07;8.17;;;4.30;99.90;;;-146.47;100.00;66290.13;4886915;29;20224;-77
2021/01/07 10:49:48;;;;;;;10.10;7.17;;;4.40;99.90;;;-146.47;100.00;66290.13;4892807;29;20236;-77
2021/01/07 10:53:21;;;;;;;12.60;8.40;;;4.40;99.90;;;-146.47;100.00;66290.13;4884439;29;20211;-76
2021/01/07 10:56:22;;;;;;;11.33;7.53;;;4.40;99.90;;;-146.47;100.00;66290.13;4887536;29;20212;-76
2021/01/07 10:59:34;;;;;;;11.33;7.30;;;4.50;99.90;;;-146.47;100.00;66290.13;4898348;29;20257;-77
2021/01/07 11:06:32;;;;;;;10.13;7.33;;;4.50;99.90;;;-146.47;100.00;66290.13;4848106;29;20719;-77
2021/01/07 11:09:26;;;;;;;9.50;6.80;;;4.60;99.90;;;-146.47;100.00;66290.13;4857565;29;20224;-77
2021/01/07 11:12:21;;;;;;;10.40;6.17;;;4.60;99.90;;;-146.47;100.00;66290.13;4884292;29;20288;-77
2021/01/07 11:15:13;;;;;;;9.30;7.00;;;4.60;99.90;;;-146.47;100.00;66290.13;4883706;29;20220;-77
2021/01/07 11:18:07;;;;;;;8.63;6.10;;;4.60;99.90;;;-146.47;100.00;66290.13;4891658;29;20207;-77
2021/01/07 11:21:00;;;;;;;8.33;6.07;;;4.60;99.90;;;-146.47;100.00;66290.13;4890091;29;20253;-77
2021/01/07 11:23:45;;;;;;;8.43;6.67;;;4.60;99.90;;;-146.47;100.00;66290.13;4895972;29;20257;-77